Time;durP1;ratioP1;P1;durP2;ratioP2;P2;SDS_P1;SDS_P2;PMS_P1;PMS_P2;Temp;Humidity;BMP_temperature;BMP_pressure;BME280_temperature;BME280_humidity;BME280_pressure;Samples;Min_cycle;Max_cycle;Signal;HPM_P1;HPM_P2
2022/03/11 00:01:37;;;;;;;;;;;;;;;-144.19;98.89;78189.72;6180345;23;20352;-90
2022/03/11 00:04:24;;;;;;;;;;;;;;;-144.19;98.66;78189.72;6178097;23;19916;-90
2022/03/11 00:06:50;;;;;;;;;;;;;;;-144.19;99.86;78189.72;6156824;23;19940;-90
2022/03/11 00:09:17;;;;;;;;;;;;;;;-144.19;100.00;78187.75;6158844;23;19916;-89
2022/03/11 00:11:44;;;;;;;;;;;;;;;-144.19;100.00;78193.66;6158432;23;19963;-88
2022/03/11 00:14:10;;;;;;;;;;;;;;;-144.19;100.00;78189.72;6180562;23;19917;-88
2022/03/11 00:16:36;;;;;;;;;;;;;;;-144.19;100.00;78197.59;6181312;23;20441;-88
2022/03/11 00:19:03;;;;;;;;;;;;;;;-144.19;100.00;78205.47;6181376;23;20003;-91
2022/03/11 00:21:32;;;;;;;;;;;;;;;-144.19;100.00;78219.25;6180410;23;20353;-89
2022/03/11 00:23:58;;;;;;;;;;;;;;;-144.19;100.00;78250.75;6179903;23;19917;-90
2022/03/11 00:26:25;;;;;;;;;;;;;;;-144.19;100.00;78254.69;6180733;23;20268;-89
2022/03/11 00:28:51;;;;;;;;;;;;;;;-144.19;100.00;78246.81;6180252;23;19923;-88
2022/03/11 00:31:18;;;;;;;;;;;;;;;-144.19;100.00;78260.59;6180850;23;19996;-88
2022/03/11 00:33:44;;;;;;;;;;;;;;;-144.19;100.00;78278.31;6180030;23;19921;-90
2022/03/11 00:36:10;;;;;;;;;;;;;;;-144.19;100.00;78264.53;6181403;23;19923;-88
2022/03/11 00:38:37;;;;;;;;;;;;;;;-144.19;100.00;78256.66;6158197;23;20262;-91
2022/03/11 00:41:04;;;;;;;;;;;;;;;-144.19;100.00;78258.63;6180607;23;19927;-90
2022/03/11 00:43:30;;;;;;;;;;;;;;;-144.19;100.00;78254.69;6180452;23;19926;-89
2022/03/11 00:45:56;;;;;;;;;;;;;;;-144.19;100.00;78256.66;6180485;23;20258;-88
2022/03/11 00:48:23;;;;;;;;;;;;;;;-144.19;100.00;78266.50;6179926;23;19966;-89
2022/03/11 00:50:49;;;;;;;;;;;;;;;-144.19;100.00;78288.16;6179947;23;19948;-89
2022/03/11 00:53:15;;;;;;;;;;;;;;;-144.19;100.00;78299.97;6178559;23;19995;-89
2022/03/11 00:55:42;;;;;;;;;;;;;;;-144.19;100.00;78292.09;6182037;23;20166;-90
2022/03/11 00:58:08;;;;;;;;;;;;;;;-144.19;100.00;78280.28;6160254;23;19916;-87
2022/03/11 01:00:34;;;;;;;;;;;;;;;-144.19;100.00;78284.22;6183537;23;20015;-90
2022/03/11 01:03:01;;;;;;;;;;;;;;;-144.19;100.00;78270.44;6181975;23;20262;-90
2022/03/11 01:05:27;;;;;;;;;;;;;;;-144.19;100.00;78270.44;6183702;23;19916;-87
2022/03/11 01:07:54;;;;;;;;;;;;;;;-144.19;100.00;78268.47;6159234;23;20330;-90
2022/03/11 01:10:20;;;;;;;;;;;;;;;-144.19;100.00;78274.38;6181174;23;20015;-93
2022/03/11 01:12:46;;;;;;;;;;;;;;;-144.19;100.00;78288.16;6180883;23;20161;-89
2022/03/11 01:15:12;;;;;;;;;;;;;;;-144.19;100.00;78294.06;6181060;23;19916;-89
2022/03/11 01:17:39;;;;;;;;;;;;;;;-144.19;100.00;78301.94;6181326;23;20360;-88
2022/03/11 01:20:06;;;;;;;;;;;;;;;-144.19;100.00;78299.97;6180738;23;20010;-90
2022/03/11 01:22:33;;;;;;;;;;;;;;;-144.19;100.00;78290.13;6157615;23;20286;-88
2022/03/11 01:24:59;;;;;;;;;;;;;;;-144.19;100.00;78292.09;6181017;23;19916;-90
2022/03/11 01:27:26;;;;;;;;;;;;;;;-144.19;100.00;78294.06;6181748;23;19917;-90
2022/03/11 01:29:52;;;;;;;;;;;;;;;-144.19;100.00;78280.28;6180787;23;19923;-89
2022/03/11 01:32:18;;;;;;;;;;;;;;;-144.19;100.00;78296.03;6180171;23;19940;-88
2022/03/11 01:34:45;;;;;;;;;;;;;;;-144.19;100.00;78290.13;6179611;23;19956;-90
2022/03/11 01:37:11;;;;;;;;;;;;;;;-144.19;100.00;78292.09;6157086;23;19959;-90
2022/03/11 01:39:37;;;;;;;;;;;;;;;-144.19;100.00;78294.06;6155399;23;19940;-90
2022/03/11 01:42:04;;;;;;;;;;;;;;;-144.19;100.00;78292.09;6179044;23;19927;-89
2022/03/11 01:44:30;;;;;;;;;;;;;;;-144.19;100.00;78301.94;6180250;23;20288;-88
2022/03/11 01:46:56;;;;;;;;;;;;;;;-144.19;100.00;78298.00;6180015;23;19917;-90
2022/03/11 01:49:22;;;;;;;;;;;;;;;-144.19;100.00;78307.88;6179571;23;19969;-90
2022/03/11 01:51:49;;;;;;;;;;;;;;;-144.19;100.00;78305.88;6179479;23;20043;-89
2022/03/11 01:54:15;;;;;;;;;;;;;;;-144.19;100.00;78315.75;6178963;23;20389;-88
2022/03/11 01:56:42;;;;;;;;;;;;;;;-144.19;100.00;78313.78;6179611;23;19916;-90
2022/03/11 01:59:11;;;;;;;;;;;;;;;-144.19;100.00;78313.78;6179953;23;19939;-90
2022/03/11 02:01:38;;;;;;;;;;;;;;;-144.19;100.00;78299.97;6155913;23;19959;-90
2022/03/11 02:04:05;;;;;;;;;;;;;;;-144.19;100.00;78311.81;6179192;23;19917;-87
2022/03/11 02:06:31;;;;;;;;;;;;;;;-144.19;100.00;78311.81;6179863;23;19917;-89
2022/03/11 02:09:00;;;;;;;;;;;;;;;-144.19;100.00;78315.75;6178969;23;19916;-87
2022/03/11 02:11:26;;;;;;;;;;;;;;;-144.19;100.00;78315.75;6178427;23;20205;-90
2022/03/11 02:13:54;;;;;;;;;;;;;;;-144.19;100.00;78307.88;6154515;23;19916;-89
2022/03/11 02:16:24;;;;;;;;;;;;;;;-144.19;100.00;78315.75;6179590;23;19916;-89
2022/03/11 02:18:51;;;;;;;;;;;;;;;-144.19;100.00;78319.69;6179548;23;19964;-89
2022/03/11 02:21:19;;;;;;;;;;;;;;;-144.19;100.00;78319.69;6178476;23;19923;-91
2022/03/11 02:23:50;;;;;;;;;;;;;;;-144.19;100.00;78315.75;6178328;23;19923;-89
2022/03/11 02:26:17;;;;;;;;;;;;;;;-144.19;100.00;78319.69;6178946;23;19917;-89
2022/03/11 02:28:44;;;;;;;;;;;;;;;-144.19;100.00;78317.72;6178870;23;19916;-88
2022/03/11 02:31:10;;;;;;;;;;;;;;;-144.19;100.00;78321.66;6155448;23;19983;-87
2022/03/11 02:33:37;;;;;;;;;;;;;;;-144.19;100.00;78323.63;6178222;23;19956;-90
2022/03/11 02:36:03;;;;;;;;;;;;;;;-144.19;100.00;78331.50;6178845;23;19916;-89
2022/03/11 02:38:30;;;;;;;;;;;;;;;-144.19;100.00;78347.25;6178494;23;20330;-89
2022/03/11 02:40:56;;;;;;;;;;;;;;;-144.19;100.00;78337.41;6178878;23;19952;-90
2022/03/11 02:43:24;;;;;;;;;;;;;;;-144.19;100.00;78341.34;6178407;23;19917;-88
2022/03/11 02:45:51;;;;;;;;;;;;;;;-144.19;100.00;78349.22;6178722;23;19955;-90
2022/03/11 02:48:17;;;;;;;;;;;;;;;-144.19;100.00;78364.97;6179383;23;20098;-89
2022/03/11 02:50:44;;;;;;;;;;;;;;;-144.19;100.00;78374.81;6177944;23;19921;-90
2022/03/11 02:53:10;;;;;;;;;;;;;;;-144.19;100.00;78378.75;6178100;23;19991;-90
2022/03/11 02:55:37;;;;;;;;;;;;;;;-144.19;100.00;78376.78;6179033;23;19916;-90
2022/03/11 02:58:03;;;;;;;;;;;;;;;-144.19;100.00;78382.69;6178726;23;20004;-88
2022/03/11 03:00:30;;;;;;;;;;;;;;;-144.19;100.00;78382.69;6178128;23;19917;-92
2022/03/11 03:02:56;;;;;;;;;;;;;;;-144.19;100.00;78390.56;6177843;23;19928;-90
2022/03/11 03:05:23;;;;;;;;;;;;;;;-144.19;100.00;78390.56;6178661;23;19916;-89
2022/03/11 03:07:49;;;;;;;;;;;;;;;-144.19;100.00;78386.63;6177765;23;19923;-89
2022/03/11 03:10:15;;;;;;;;;;;;;;;-144.19;100.00;78382.69;6177734;23;19963;-90
2022/03/11 03:12:42;;;;;;;;;;;;;;;-144.19;100.00;78406.31;6178354;23;19948;-89
2022/03/11 03:15:09;;;;;;;;;;;;;;;-144.19;100.00;78398.44;6178512;23;19916;-90
2022/03/11 03:17:35;;;;;;;;;;;;;;;-144.19;100.00;78404.34;6178860;23;19939;-91
2022/03/11 03:20:03;;;;;;;;;;;;;;;-144.19;100.00;78414.19;6177990;23;19917;-88
2022/03/11 03:22:29;;;;;;;;;;;;;;;-144.19;100.00;78414.19;6177788;23;19917;-90
2022/03/11 03:24:56;;;;;;;;;;;;;;;-144.19;100.00;78426.03;6178870;23;19951;-90
2022/03/11 03:27:22;;;;;;;;;;;;;;;-144.19;100.00;78428.00;6178879;23;19996;-88
2022/03/11 03:29:48;;;;;;;;;;;;;;;-144.19;100.00;78422.09;6177856;23;19916;-89
2022/03/11 03:32:15;;;;;;;;;;;;;;;-144.19;100.00;78416.19;6178010;23;19987;-89
2022/03/11 03:34:41;;;;;;;;;;;;;;;-144.19;100.00;78418.13;6178579;23;19991;-89
2022/03/11 03:37:09;;;;;;;;;;;;;;;-144.19;100.00;78418.13;6154944;23;19923;-90
2022/03/11 03:39:37;;;;;;;;;;;;;;;-144.19;100.00;78412.22;6178628;23;19917;-90
2022/03/11 03:42:03;;;;;;;;;;;;;;;-144.19;100.00;78418.13;6177103;23;19916;-89
2022/03/11 03:44:30;;;;;;;;;;;;;;;-144.19;100.00;78412.22;6178714;23;19917;-89
2022/03/11 03:46:56;;;;;;;;;;;;;;;-144.19;100.00;78410.25;6178888;23;19995;-89
2022/03/11 03:49:23;;;;;;;;;;;;;;;-144.19;100.00;78422.09;6177947;23;19917;-89
2022/03/11 03:51:49;;;;;;;;;;;;;;;-144.19;100.00;78414.19;6177969;23;19917;-88
2022/03/11 03:54:17;;;;;;;;;;;;;;;-144.19;100.00;78420.13;6154128;23;19924;-87
2022/03/11 03:56:44;;;;;;;;;;;;;;;-144.19;100.00;78418.13;6178273;23;19917;-88
2022/03/11 03:59:11;;;;;;;;;;;;;;;-144.19;100.00;78429.97;6178346;23;19917;-91
2022/03/11 04:01:38;;;;;;;;;;;;;;;-144.19;100.00;78428.00;6154963;23;19916;-90
2022/03/11 04:04:06;;;;;;;;;;;;;;;-144.19;100.00;78439.81;6179319;23;19920;-89
2022/03/11 04:06:33;;;;;;;;;;;;;;;-144.19;100.00;78445.72;6180106;23;19991;-89
2022/03/11 04:09:00;;;;;;;;;;;;;;;-144.19;100.00;78453.59;6179603;23;19916;-88
2022/03/11 04:11:27;;;;;;;;;;;;;;;-144.19;100.00;78447.69;6178860;23;19916;-88
2022/03/11 04:13:54;;;;;;;;;;;;;;;-144.19;100.00;78445.72;6178970;23;20334;-90
2022/03/11 04:16:22;;;;;;;;;;;;;;;-144.19;100.00;78449.66;6183951;23;19917;-87
2022/03/11 04:18:49;;;;;;;;;;;;;;;-144.19;100.00;78459.50;6182412;23;19916;-90
2022/03/11 04:21:18;;;;;;;;;;;;;;;-144.19;100.00;78457.53;6182181;23;20258;-87
2022/03/11 04:23:45;;;;;;;;;;;;;;;-144.19;100.00;78477.22;6180621;23;19920;-88
2022/03/11 04:26:12;;;;;;;;;;;;;;;-144.19;100.00;78491.00;6181664;23;19995;-90
2022/03/11 04:28:39;;;;;;;;;;;;;;;-144.19;100.00;78491.00;6181745;23;19999;-88
2022/03/11 04:31:07;;;;;;;;;;;;;;;-144.19;100.00;78485.09;6180600;23;19917;-89
2022/03/11 04:33:34;;;;;;;;;;;;;;;-144.19;100.00;78481.16;6157766;23;20373;-88
2022/03/11 04:36:01;;;;;;;;;;;;;;;-144.19;100.00;78473.28;6182065;23;19922;-87
2022/03/11 04:38:27;;;;;;;;;;;;;;;-144.19;100.00;78479.19;6182301;23;19940;-90
2022/03/11 04:40:54;;;;;;;;;;;;;;;-144.19;100.00;78477.22;6181039;23;19917;-89
2022/03/11 04:43:20;;;;;;;;;;;;;;;-144.19;100.00;78481.16;6180702;23;19965;-89
2022/03/11 04:45:47;;;;;;;;;;;;;;;-144.19;100.00;78485.09;6155972;23;19965;-89
2022/03/11 04:48:14;;;;;;;;;;;;;;;-144.19;100.00;78489.03;6180899;23;19917;-88
2022/03/11 04:50:40;;;;;;;;;;;;;;;-144.19;100.00;78492.97;6180361;23;19964;-90
2022/03/11 04:53:07;;;;;;;;;;;;;;;-144.19;100.00;78510.69;6180471;23;20288;-89
2022/03/11 04:55:33;;;;;;;;;;;;;;;-144.19;100.00;78504.78;6181165;23;19941;-86
2022/03/11 04:57:59;;;;;;;;;;;;;;;-144.19;100.00;78510.69;6198882;23;19948;-88
2022/03/11 05:00:26;;;;;;;;;;;;;;;-144.19;100.00;78510.69;6184374;23;19947;-89
2022/03/11 05:02:54;;;;;;;;;;;;;;;-144.19;100.00;78508.72;6184440;23;20405;-88
2022/03/11 05:05:21;;;;;;;;;;;;;;;-144.19;100.00;78512.66;6181294;23;19939;-89
2022/03/11 05:07:47;;;;;;;;;;;;;;;-144.19;100.00;78510.69;6156954;23;19923;-89
2022/03/11 05:12:51;;;;;;;;;;;;;;;-144.19;100.00;78504.78;6179910;23;19935;-85
2022/03/11 05:15:45;;;;;;;;;;;;;;;-144.19;100.00;78508.72;6158000;23;19916;-83
2022/03/11 05:18:18;;;;;;;;;;;;;;;-144.19;100.00;78512.66;6156765;23;19927;-85
2022/03/11 05:20:52;;;;;;;;;;;;;;;-144.19;100.00;78512.66;6190864;23;19916;-85
2022/03/11 05:23:22;;;;;;;;;;;;;;;-144.19;100.00;78508.72;6184691;23;19900;-85
2022/03/11 05:26:24;;;;;;;;;;;;;;;-144.19;100.00;78504.78;6208463;23;19920;-85
2022/03/11 05:28:53;;;;;;;;;;;;;;;-144.19;100.00;78522.50;6210504;23;19904;-86
2022/03/11 05:31:29;;;;;;;;;;;;;;;-144.19;100.00;78502.81;6209890;23;19926;-85
2022/03/11 05:34:13;;;;;;;;;;;;;;;-144.19;100.00;78508.72;6184686;23;19927;-85
2022/03/11 05:36:53;;;;;;;;;;;;;;;-144.19;100.00;78508.72;6211627;23;19956;-84
2022/03/11 05:46:38;;;;;;;;;;;;;;;-144.19;100.00;78504.78;6116977;23;19917;-84
2022/03/11 05:49:23;;;;;;;;;;;;;;;-144.19;100.00;78508.72;6150109;23;19939;-84
2022/03/11 05:52:32;;;;;;;;;;;;;;;-144.19;100.00;78516.59;6184610;23;19912;-86
2022/03/11 05:55:44;;;;;;;;;;;;;;;-144.19;100.00;78526.47;6181248;23;19987;-86
2022/03/11 05:58:27;;;;;;;;;;;;;;;-144.19;100.00;78530.41;6202023;23;20003;-86
2022/03/11 06:01:08;;;;;;;;;;;;;;;-144.19;100.00;78524.50;6175071;23;19948;-85
2022/03/11 06:03:55;;;;;;;;;;;;;;;-144.19;100.00;78528.44;6205681;23;19939;-85
2022/03/11 06:06:37;;;;;;;;;;;;;;;-144.19;100.00;78538.28;6210051;23;19900;-86
2022/03/11 06:09:16;;;;;;;;;;;;;;;-144.19;100.00;78536.31;6211372;23;19916;-85
2022/03/11 06:11:49;;;;;;;;;;;;;;;-144.19;100.00;78540.25;6207726;23;19916;-85
2022/03/11 06:14:21;;;;;;;;;;;;;;;-144.19;100.00;78544.19;6183647;23;19916;-85
2022/03/11 06:17:02;;;;;;;;;;;;;;;-144.19;100.00;78542.22;6206318;23;19916;-85
2022/03/11 06:19:50;;;;;;;;;;;;;;;-144.19;100.00;78548.13;6184071;23;19967;-85
2022/03/11 06:22:22;;;;;;;;;;;;;;;-144.19;100.00;78548.13;6208345;23;19916;-86
2022/03/11 06:25:14;;;;;;;;;;;;;;;-144.19;100.00;78557.97;6186009;23;19912;-86
2022/03/11 06:27:49;;;;;;;;;;;;;;;-144.19;100.00;78544.19;6208330;23;19916;-85
2022/03/11 06:30:28;;;;;;;;;;;;;;;-144.19;100.00;78528.44;6183598;23;19932;-85
2022/03/11 06:36:34;;;;;;;;;;;;;;;-144.19;100.00;78520.56;6174651;23;19922;-85
2022/03/11 06:39:13;;;;;;;;;;;;;;;-144.19;100.00;78528.44;6204589;23;19935;-86
2022/03/11 06:42:06;;;;;;;;;;;;;;;-144.19;100.00;78528.44;6181708;23;19916;-85
2022/03/11 06:45:07;;;;;;;;;;;;;;;-144.19;100.00;78516.59;6183552;23;19916;-85
2022/03/11 06:48:10;;;;;;;;;;;;;;;-144.19;100.00;78522.50;6181877;23;19916;-86
2022/03/11 06:54:30;;;;;;;;;;;;;;;-144.19;100.00;78524.50;6209524;23;19940;-84
2022/03/11 06:57:03;;;;;;;;;;;;;;;-144.19;100.00;78518.56;6208401;23;19943;-84
2022/03/11 06:59:41;;;;;;;;;;;;;;;-144.19;100.00;78512.66;6208682;23;19916;-84
2022/03/11 07:02:11;;;;;;;;;;;;;;;-144.19;100.00;78502.81;6206961;23;19931;-84
2022/03/11 07:04:50;;;;;;;;;;;;;;;-144.19;100.00;78502.81;6183625;23;19904;-83
2022/03/11 07:07:20;;;;;;;;;;;;;;;-144.19;100.00;78492.97;6208616;23;19919;-84
2022/03/11 07:10:02;;;;;;;;;;;;;;;-144.19;100.00;78491.00;6184100;23;19972;-84
2022/03/11 07:12:59;;;;;;;;;;;;;;;-144.19;100.00;78477.22;6207682;23;19943;-86
2022/03/11 07:15:35;;;;;;;;;;;;;;;-144.19;100.00;78473.28;6208618;23;19916;-84
2022/03/11 07:18:03;;;;;;;;;;;;;;;-144.19;100.00;78469.34;6183427;23;19944;-83
2022/03/11 07:20:30;;;;;;;;;;;;;;;-144.19;100.00;78453.59;6208933;23;19927;-85
2022/03/11 07:23:17;;;;;;;;;;;;;;;-144.19;100.00;78441.78;6208295;23;19904;-84
2022/03/11 07:25:48;;;;;;;;;;;;;;;-144.19;100.00;78439.81;6183963;23;19920;-84
2022/03/11 07:28:15;;;;;;;;;;;;;;;-144.19;100.00;78422.09;6183581;23;19971;-84
2022/03/11 07:30:49;;;;;;;;;;;;;;;-144.19;100.00;78428.00;6182128;23;19923;-83
2022/03/11 07:33:16;;;;;;;;;;;;;;;-144.19;100.00;78418.13;6183579;23;19995;-84
2022/03/11 07:35:46;;;;;;;;;;;;;;;-144.19;100.00;78406.31;6208872;23;20046;-84
2022/03/11 07:38:14;;;;;;;;;;;;;;;-144.19;100.00;78398.44;6209441;23;19916;-84
2022/03/11 07:40:41;;;;;;;;;;;;;;;-144.19;100.00;78390.56;6209098;23;20349;-84
2022/03/11 07:43:09;;;;;;;;;;;;;;;-144.19;100.00;78378.75;6183763;23;19916;-85
2022/03/11 07:45:40;;;;;;;;;;;;;;;-144.19;100.00;78370.88;6209214;23;19923;-84
2022/03/11 07:48:07;;;;;;;;;;;;;;;-144.19;100.00;78355.13;6182903;23;19906;-85
2022/03/11 07:50:43;;;;;;;;;;;;;;;-144.19;100.00;78355.13;6209437;23;19916;-84
2022/03/11 07:53:10;;;;;;;;;;;;;;;-144.19;100.00;78339.38;6183403;23;19920;-85
2022/03/11 07:55:39;;;;;;;;;;;;;;;-144.19;100.00;78337.41;6183233;23;19916;-85
2022/03/11 07:58:09;;;;;;;;;;;;;;;-144.19;100.00;78321.66;6209155;23;19916;-84
2022/03/11 08:00:39;;;;;;;;;;;;;;;-144.19;100.00;78307.88;6185186;23;19904;-84
2022/03/11 08:03:09;;;;;;;;;;;;;;;-144.19;100.00;78296.03;6209767;23;19939;-85
2022/03/11 08:05:37;;;;;;;;;;;;;;;-144.19;100.00;78290.13;6210279;23;20368;-86
2022/03/11 08:08:04;;;;;;;;;;;;;;;-144.19;100.00;78280.28;6180580;23;19920;-86
2022/03/11 08:10:33;;;;;;;;;;;;;;;-144.19;100.00;78276.34;6181906;23;19916;-87
2022/03/11 08:13:21;;;;;;;;;;;;;;;-144.19;100.00;78254.69;6187550;23;19920;-85
2022/03/11 08:15:48;;;;;;;;;;;;;;;-144.19;100.00;78252.72;6209120;23;19922;-82
2022/03/11 08:18:15;;;;;;;;;;;;;;;-144.19;100.00;78235.00;6180021;23;19916;-82
2022/03/11 08:20:45;;;;;;;;;;;;;;;-144.19;100.00;78227.13;6205037;23;19971;-81
2022/03/11 08:23:15;;;;;;;;;;;;;;;-144.19;100.00;78205.47;6177140;23;19970;-82
2022/03/11 08:28:58;;;;;;;;;;;;;;;-144.19;100.00;78173.94;6205336;23;19920;-82
2022/03/11 08:31:50;;;;;;;;;;;;;;;-144.19;100.00;78150.31;6183626;23;19920;-82
2022/03/11 08:34:20;;;;;;;;;;;;;;;-144.19;100.00;78114.88;6206960;23;19916;-83
2022/03/11 08:37:07;;;;;;;;;;;;;;;-144.19;100.00;78087.31;6205442;23;19930;-82
2022/03/11 08:39:34;;;;;;;;;;;;;;;-144.19;100.00;78061.72;6179100;23;19950;-83
2022/03/11 08:42:10;;;;;;;;;;;;;;;-144.19;96.24;78018.38;6203857;23;19920;-82
2022/03/11 08:44:39;;;;;;;;;;;;;;;-144.19;89.81;77992.78;6177582;23;19963;-83
2022/03/11 08:47:07;;;;;;;;;;;;;;;-144.19;88.19;77969.16;6177229;23;19916;-82
2022/03/11 08:49:34;;;;;;;;;;;;;;;-144.19;83.50;77945.53;6203805;23;19920;-83
2022/03/11 08:52:05;;;;;;;;;;;;;;;-144.19;80.82;77937.66;6203666;23;19920;-82
2022/03/11 08:54:32;;;;;;;;;;;;;;;-144.19;79.39;77906.16;6202786;23;19916;-83
2022/03/11 08:56:59;;;;;;;;;;;;;;;-144.19;76.36;77882.53;6204425;23;19916;-83
2022/03/11 08:59:31;;;;;;;;;;;;;;;-144.19;73.55;77868.75;6182508;23;19923;-81
2022/03/11 09:02:09;;;;;;;;;;;;;;;-144.19;72.57;77858.91;6206505;23;19912;-82
2022/03/11 09:05:08;;;;;;;;;;;;;;;-144.19;72.38;77851.03;6182521;23;19905;-82
2022/03/11 09:08:19;;;;;;;;;;;;;;;-144.19;68.79;77827.38;6115272;23;19917;-81
2022/03/11 09:10:55;;;;;;;;;;;;;;;-144.19;66.95;77831.31;6149452;23;19956;-82
2022/03/11 09:13:34;;;;;;;;;;;;;;;-144.19;67.66;77813.59;6183192;23;19920;-81
2022/03/11 09:16:05;;;;;;;;;;;;;;;-144.19;66.57;77788.00;6181836;23;19923;-84
2022/03/11 09:18:40;;;;;;;;;;;;;;;-144.19;65.43;77770.28;6184049;23;19923;-86
2022/03/11 09:21:21;;;;;;;;;;;;;;;-144.19;63.84;77758.47;6183776;23;19916;-86
2022/03/11 09:24:01;;;;;;;;;;;;;;;-144.19;61.46;77750.59;6183193;23;19917;-82
2022/03/11 09:26:32;;;;;;;;;;;;;;;-144.19;61.24;77740.75;6181865;23;20004;-83
2022/03/11 09:29:25;;;;;;;;;;;;;;;-144.19;60.52;77721.06;6186217;23;19916;-84
2022/03/11 09:31:52;;;;;;;;;;;;;;;-144.19;59.30;77725.00;6181888;23;19916;-82
2022/03/11 09:34:45;;;;;;;;;;;;;;;-144.19;59.01;77697.44;6183039;23;19916;-84
2022/03/11 09:37:13;;;;;;;;;;;;;;;-144.19;58.70;77669.88;6182448;23;19917;-82
2022/03/11 09:39:40;;;;;;;;;;;;;;;-144.19;57.58;77669.88;6182257;23;19927;-82
2022/03/11 09:42:47;;;;;;;;;;;;;;;-144.19;56.92;77663.97;6184547;23;19915;-84
2022/03/11 09:45:22;;;;;;;;;;;;;;;-144.19;56.08;77638.38;6207750;23;19916;-83
2022/03/11 09:47:56;;;;;;;;;;;;;;;-144.19;54.68;77624.59;6204537;23;19916;-84
2022/03/11 09:50:30;;;;;;;;;;;;;;;-144.19;54.44;77599.00;6180147;23;19916;-83
2022/03/11 09:53:02;;;;;;;;;;;;;;;-144.19;55.20;77581.28;6177527;23;19931;-82
2022/03/11 09:55:29;;;;;;;;;;;;;;;-144.19;53.68;77571.44;6181573;23;19955;-83
2022/03/11 10:01:16;;;;;;;;;;;;;;;-144.19;51.42;77549.75;6174486;23;19931;-82
2022/03/11 10:04:11;;;;;;;;;;;;;;;-144.19;51.61;77512.34;6175278;23;19904;-84
2022/03/11 10:06:59;;;;;;;;;;;;;;;-144.19;50.18;77508.41;6181899;23;19920;-84
2022/03/11 10:09:30;;;;;;;;;;;;;;;-144.19;49.74;77476.91;6206012;23;19987;-83
2022/03/11 10:12:07;;;;;;;;;;;;;;;-144.19;48.78;77453.28;6180340;23;19917;-82
2022/03/11 10:14:39;;;;;;;;;;;;;;;-144.19;47.88;77429.66;6178186;23;19924;-84
2022/03/11 10:17:20;;;;;;;;;;;;;;;-144.19;48.17;77433.59;6206560;23;19951;-83
2022/03/11 10:20:04;;;;;;;;;;;;;;;-144.19;46.75;77423.75;6177485;23;19940;-83
2022/03/11 10:22:35;;;;;;;;;;;;;;;-144.19;48.22;77358.78;6180819;23;19935;-82
2022/03/11 10:25:18;;;;;;;;;;;;;;;-144.19;45.58;77390.28;6208818;23;19916;-81
2022/03/11 10:28:09;;;;;;;;;;;;;;;-144.19;44.97;77358.78;6204273;23;19916;-84
2022/03/11 10:30:37;;;;;;;;;;;;;;;-144.19;45.02;77321.38;6179229;23;19927;-84
2022/03/11 10:33:12;;;;;;;;;;;;;;;-144.19;44.30;77272.16;6179160;23;19926;-85
2022/03/11 10:35:47;;;;;;;;;;;;;;;-144.19;42.83;77230.81;6202999;23;19916;-83
2022/03/11 10:38:19;;;;;;;;;;;;;;;-144.19;43.13;77224.91;6179296;23;19920;-85
2022/03/11 10:40:50;;;;;;;;;;;;;;;-144.19;42.13;77252.47;6180874;23;19938;-90
2022/03/11 10:43:30;;;;;;;;;;;;;;;-144.19;41.60;77122.53;6204919;23;19939;-89
2022/03/11 10:46:00;;;;;;;;;;;;;;;-144.19;40.16;77106.78;6182865;23;19927;-91
2022/03/11 10:48:54;;;;;;;;;;;;;;;-144.19;39.82;77075.28;6169275;23;19916;-88
2022/03/11 10:51:31;;;;;;;;;;;;;;;-144.19;38.53;77087.09;6181322;23;19920;-89
2022/03/11 10:54:04;;;;;;;;;;;;;;;-144.19;38.39;77075.28;6182557;23;19936;-84
2022/03/11 10:56:39;;;;;;;;;;;;;;;-144.19;38.34;77087.09;6182050;23;19943;-84
2022/03/11 10:59:13;;;;;;;;;;;;;;;-144.19;37.95;77039.84;6181549;23;20135;-86
2022/03/11 11:01:44;;;;;;;;;;;;;;;-144.19;37.11;76982.75;6181757;23;19920;-85
2022/03/11 11:04:30;;;;;;;;;;;;;;;-144.19;36.13;76968.97;6180640;23;19916;-84
2022/03/11 11:07:12;;;;;;;;;;;;;;;-144.19;34.93;76850.88;6206824;23;19939;-86
2022/03/11 11:13:18;;;;;;;;;;;;;;;-144.19;33.94;76807.56;6149497;23;19988;-85
2022/03/11 11:15:44;;;;;;;;;;;;;;;-144.19;34.54;76711.09;6158662;23;19916;-83
2022/03/11 11:18:12;;;;;;;;;;;;;;;-144.19;34.51;76728.81;6158726;23;19920;-87
2022/03/11 11:20:40;;;;;;;;;;;;;;;-144.19;34.73;76701.25;6157715;23;20004;-83
2022/03/11 11:23:07;;;;;;;;;;;;;;;-144.19;33.22;76589.06;6157477;23;19923;-83
2022/03/11 11:25:35;;;;;;;;;;;;;;;-144.19;32.28;76559.53;6157465;23;19995;-82
2022/03/11 11:28:09;;;;;;;;;;;;;;;-144.19;33.11;76520.16;6181363;23;19926;-85
2022/03/11 11:30:35;;;;;;;;;;;;;;;-144.19;31.10;76480.81;6181945;23;19917;-84
2022/03/11 11:33:02;;;;;;;;;;;;;;;-144.19;31.21;76579.22;6156697;23;19916;-86
2022/03/11 11:35:32;;;;;;;;;;;;;;;-144.19;31.75;76520.16;6180619;23;19916;-84
2022/03/11 11:37:59;;;;;;;;;;;;;;;-144.19;31.45;76598.91;6153999;23;20234;-84
2022/03/11 11:40:28;;;;;;;;;;;;;;;-144.19;31.43;76561.50;6180411;23;20579;-85
2022/03/11 11:43:31;;;;;;;;;;;;;;;-144.19;31.59;76715.03;6156772;23;20396;-85
2022/03/11 11:46:04;;;;;;;;;;;;;;;-144.19;31.82;76598.91;6156322;23;19986;-86
2022/03/11 11:48:33;;;;;;;;;;;;;;;-144.19;30.62;76630.41;6180201;23;20008;-86
2022/03/11 11:51:00;;;;;;;;;;;;;;;-144.19;30.86;76604.81;6155671;23;19952;-85
2022/03/11 11:53:34;;;;;;;;;;;;;;;-144.19;30.94;76472.94;6177833;23;19917;-83
2022/03/11 11:56:00;;;;;;;;;;;;;;;-144.19;30.25;76563.47;6157922;23;19916;-85
2022/03/11 11:58:30;;;;;;;;;;;;;;;-144.19;30.48;76600.88;6150880;23;19944;-84
2022/03/11 12:00:57;;;;;;;;;;;;;;;-144.19;30.25;76646.16;6175731;23;19921;-84
2022/03/11 12:03:42;;;;;;;;;;;;;;;-144.19;31.25;76559.53;6180075;23;19921;-84
2022/03/11 12:06:09;;;;;;;;;;;;;;;-144.19;29.09;76652.06;6156840;23;19917;-81
2022/03/11 12:08:39;;;;;;;;;;;;;;;-144.19;30.73;76681.56;6158378;23;20302;-85
2022/03/11 12:11:06;;;;;;;;;;;;;;;-144.19;30.79;76654.03;6159383;23;20361;-83
2022/03/11 12:13:33;;;;;;;;;;;;;;;-144.19;30.15;76634.34;6155352;23;19999;-83
2022/03/11 12:16:00;;;;;;;;;;;;;;;-144.19;30.08;76596.94;6157027;23;19920;-83
2022/03/11 12:18:33;;;;;;;;;;;;;;;-144.19;29.91;76636.31;6157639;23;19924;-83
2022/03/11 12:21:00;;;;;;;;;;;;;;;-144.19;29.54;76652.06;6154772;23;19924;-82
2022/03/11 12:23:30;;;;;;;;;;;;;;;-144.19;30.18;76634.34;6155448;23;19923;-83
2022/03/11 12:25:58;;;;;;;;;;;;;;;-144.19;29.89;76642.22;6154511;23;19921;-83
2022/03/11 12:28:25;;;;;;;;;;;;;;;-144.19;30.32;76642.22;6180827;23;19920;-82
2022/03/11 12:30:51;;;;;;;;;;;;;;;-144.19;30.18;76569.38;6156538;23;20296;-82
2022/03/11 12:33:19;;;;;;;;;;;;;;;-144.19;29.54;76579.22;6157195;23;19952;-84
2022/03/11 12:35:47;;;;;;;;;;;;;;;-144.19;30.20;76697.31;6157681;23;19916;-83
2022/03/11 12:38:14;;;;;;;;;;;;;;;-144.19;30.08;76722.91;6181583;23;19916;-83
2022/03/11 12:40:41;;;;;;;;;;;;;;;-144.19;29.78;76663.88;6181613;23;19923;-83
2022/03/11 12:43:09;;;;;;;;;;;;;;;-144.19;29.24;76715.03;6181480;23;19920;-83
2022/03/11 12:45:37;;;;;;;;;;;;;;;-144.19;29.85;76703.22;6155683;23;20712;-85
2022/03/11 12:48:03;;;;;;;;;;;;;;;-144.19;30.04;76717.00;6159138;23;19923;-84
2022/03/11 12:50:30;;;;;;;;;;;;;;;-144.19;30.07;76728.81;6157860;23;20292;-82
2022/03/11 12:52:57;;;;;;;;;;;;;;;-144.19;30.41;76756.38;6156103;23;20007;-83
2022/03/11 12:55:31;;;;;;;;;;;;;;;-144.19;30.41;76768.19;6159190;23;19920;-83
2022/03/11 12:57:59;;;;;;;;;;;;;;;-144.19;30.99;76760.31;6179433;23;19920;-82
2022/03/11 13:00:32;;;;;;;;;;;;;;;-144.19;30.55;76764.25;6176890;23;19916;-81
2022/03/11 13:02:59;;;;;;;;;;;;;;;-144.19;30.22;76756.38;6153112;23;19936;-82
2022/03/11 13:05:26;;;;;;;;;;;;;;;-144.19;31.63;76691.41;6154153;23;19939;-83
2022/03/11 13:07:53;;;;;;;;;;;;;;;-144.19;29.96;76720.94;6154765;23;20004;-80
2022/03/11 13:10:24;;;;;;;;;;;;;;;-144.19;30.85;76687.47;6150528;23;19932;-82